createdAt,value
2023-02-16T00:01:00.001Z,100834.91
2023-02-16T00:06:01.765Z,100833.31
2023-02-16T00:11:21.910Z,100847.94
2023-02-16T00:16:25.117Z,100836.44
2023-02-16T00:21:27.050Z,100834.91
2023-02-16T00:26:31.339Z,100838.53
2023-02-16T00:31:33.219Z,100846.81
2023-02-16T00:36:35.081Z,100842.38
2023-02-16T00:41:52.028Z,100835.94
2023-02-16T00:46:53.796Z,100827.13
2023-02-16T00:51:55.813Z,100829.72
2023-02-16T00:56:57.830Z,100837.31
2023-02-16T01:01:59.643Z,100827.38
2023-02-16T01:07:19.869Z,100828.41
2023-02-16T01:12:22.119Z,100825.84
2023-02-16T01:17:24.713Z,100817.28
2023-02-16T01:22:33.344Z,100818.97
2023-02-16T01:27:38.144Z,100808.72
2023-02-16T01:32:40.407Z,100818.16
2023-02-16T01:37:42.806Z,100807.59
2023-02-16T01:42:52.105Z,100802.69
2023-02-16T01:48:01.728Z,100798.13
2023-02-16T01:53:23.747Z,100802.94
2023-02-16T01:58:46.144Z,100798.38
2023-02-16T02:04:06.377Z,100798.75
2023-02-16T02:09:20.225Z,100787.69
2023-02-16T02:14:32.223Z,100786.44
2023-02-16T02:20:09.627Z,100790.34
2023-02-16T02:25:17.190Z,100797.25
2023-02-16T02:30:40.793Z,100799.03
2023-02-16T02:35:58.456Z,100792.84
2023-02-16T02:41:22.275Z,100791.75
2023-02-16T02:46:30.372Z,100787.38
2023-02-16T02:51:33.895Z,100776.13
2023-02-16T02:57:03.910Z,100772.75
2023-02-16T03:02:06.355Z,100761.34
2023-02-16T03:07:09.968Z,100765.53
2023-02-16T03:12:32.064Z,100777.78
2023-02-16T03:17:55.779Z,100781.66
2023-02-16T03:23:16.806Z,100782.97
2023-02-16T03:28:39.493Z,100782.03
2023-02-16T03:33:41.619Z,100780.41
2023-02-16T03:38:43.334Z,100787.56
2023-02-16T03:43:45.001Z,100786.19
2023-02-16T03:48:46.693Z,100789.28
2023-02-16T03:53:48.353Z,100798.00
2023-02-16T03:58:50.006Z,100788.47
2023-02-16T04:03:51.788Z,100775.31
2023-02-16T04:08:54.548Z,100780.53
2023-02-16T04:13:56.303Z,100789.47
2023-02-16T04:18:58.014Z,100781.75
2023-02-16T04:24:00.040Z,100785.56
2023-02-16T04:29:01.707Z,100784.63
2023-02-16T04:34:03.413Z,100778.19
2023-02-16T04:39:05.397Z,100774.13
2023-02-16T04:44:07.166Z,100771.16
2023-02-16T04:49:08.828Z,100755.50
2023-02-16T04:54:10.472Z,100766.53
2023-02-16T04:59:12.606Z,100762.56
2023-02-16T05:04:14.536Z,100763.75
2023-02-16T05:09:16.289Z,100773.91
2023-02-16T05:14:42.781Z,100769.09
2023-02-16T05:19:47.240Z,100769.06
2023-02-16T05:24:49.413Z,100773.13
2023-02-16T05:29:51.741Z,100780.34
2023-02-16T05:34:53.566Z,100787.53
2023-02-16T05:39:55.251Z,100782.78
2023-02-16T05:44:56.910Z,100789.19
2023-02-16T05:49:58.596Z,100793.44
2023-02-16T05:55:00.311Z,100795.13
2023-02-16T06:00:03.438Z,100788.28
2023-02-16T06:05:06.646Z,100799.19
2023-02-16T06:10:09.081Z,100804.97
2023-02-16T06:15:11.860Z,100799.75
2023-02-16T06:20:13.573Z,100798.63
2023-02-16T06:25:15.383Z,100791.53
2023-02-16T06:30:17.378Z,100792.28
2023-02-16T06:35:19.057Z,100793.91
2023-02-16T06:40:21.463Z,100803.03
2023-02-16T06:45:23.211Z,100797.50
2023-02-16T06:50:24.891Z,100794.38
2023-02-16T06:55:26.617Z,100792.22
2023-02-16T07:00:29.723Z,100790.44
2023-02-16T07:05:31.439Z,100789.28
2023-02-16T07:10:47.711Z,100787.38
2023-02-16T07:15:51.215Z,100783.03
2023-02-16T07:20:53.119Z,100768.94
2023-02-16T07:25:54.854Z,100770.94
2023-02-16T07:30:56.632Z,100772.72
2023-02-16T07:35:58.587Z,100785.03
2023-02-16T07:41:00.379Z,100799.34
2023-02-16T07:46:02.287Z,100807.59
2023-02-16T07:51:04.989Z,100798.34
2023-02-16T07:56:06.983Z,100792.78
2023-02-16T08:01:11.062Z,100792.41
2023-02-16T08:06:13.689Z,100794.19
2023-02-16T08:11:17.150Z,100799.84
2023-02-16T08:16:24.682Z,100809.91
2023-02-16T08:21:32.595Z,100809.25
2023-02-16T08:26:37.819Z,100803.47
2023-02-16T08:31:39.955Z,100801.78
2023-02-16T08:36:44.632Z,100799.56
2023-02-16T08:41:48.279Z,100796.84
2023-02-16T08:46:51.030Z,100790.88
2023-02-16T08:51:55.670Z,100787.31
2023-02-16T08:56:59.827Z,100785.28
2023-02-16T09:02:01.544Z,100785.25
2023-02-16T09:07:03.464Z,100782.13
2023-02-16T09:12:05.580Z,100779.63
2023-02-16T09:17:07.360Z,100772.97
2023-02-16T09:22:09.034Z,100772.41
2023-02-16T09:27:11.611Z,100778.97
2023-02-16T09:32:14.644Z,100772.22
2023-02-16T09:37:16.247Z,100769.50
2023-02-16T09:42:24.428Z,100762.88
2023-02-16T09:47:32.105Z,100765.59
2023-02-16T09:52:42.826Z,100765.47
2023-02-16T09:57:55.731Z,100766.28
2023-02-16T10:03:32.237Z,100766.44
2023-02-16T10:08:45.468Z,100761.28
2023-02-16T10:13:54.065Z,100769.06
2023-02-16T10:18:58.856Z,100766.53
2023-02-16T10:24:05.192Z,100775.38
2023-02-16T10:29:12.890Z,100764.28
2023-02-16T10:34:23.445Z,100750.44
2023-02-16T10:39:35.133Z,100757.41
2023-02-16T10:44:43.856Z,100752.88
2023-02-16T10:49:47.894Z,100744.72
2023-02-16T10:54:49.536Z,100721.47
2023-02-16T10:59:51.395Z,100718.63
2023-02-16T11:04:54.784Z,100716.19
2023-02-16T11:10:00.897Z,100727.78
2023-02-16T11:15:18.764Z,100724.59
2023-02-16T11:20:31.812Z,100721.75
2023-02-16T11:25:33.429Z,100719.84
2023-02-16T11:30:41.386Z,100694.16
2023-02-16T11:35:45.797Z,100698.00
2023-02-16T11:40:52.755Z,100690.34
2023-02-16T11:46:20.178Z,100685.19
2023-02-16T11:51:34.901Z,100682.50
2023-02-16T11:56:36.593Z,100673.00
2023-02-16T12:02:08.607Z,100679.22
2023-02-16T12:07:28.812Z,100674.41
2023-02-16T12:12:48.904Z,100668.28
2023-02-16T12:18:02.710Z,100670.84
2023-02-16T12:23:18.471Z,100661.22
2023-02-16T12:28:41.678Z,100650.69
2023-02-16T12:34:01.569Z,100647.47
2023-02-16T12:39:12.279Z,100646.72
2023-02-16T12:44:25.026Z,100635.22
2023-02-16T12:49:49.379Z,100630.16
2023-02-16T12:55:11.025Z,100624.25
2023-02-16T13:00:33.194Z,100623.50
2023-02-16T13:05:38.004Z,100622.41
2023-02-16T13:11:05.615Z,100613.78
2023-02-16T13:16:24.167Z,100610.09
2023-02-16T13:21:50.989Z,100600.75
2023-02-16T13:27:18.174Z,100595.91
2023-02-16T13:32:48.697Z,100604.59
2023-02-16T13:37:59.928Z,100586.41
2023-02-16T13:43:30.831Z,100593.09
2023-02-16T13:48:47.432Z,100594.91
2023-02-16T13:53:52.296Z,100598.06
2023-02-16T13:58:54.298Z,100596.69
2023-02-16T14:03:55.904Z,100596.25
2023-02-16T14:09:13.174Z,100604.59
2023-02-16T14:14:53.017Z,100612.38
2023-02-16T14:19:54.630Z,100610.44
2023-02-16T14:25:00.000Z,100612.47
2023-02-16T14:30:03.382Z,100612.66
2023-02-16T14:35:15.699Z,100610.31
2023-02-16T14:40:38.704Z,100624.25
2023-02-16T14:45:49.340Z,100621.19
2023-02-16T14:51:28.940Z,100624.81
2023-02-16T14:56:59.570Z,100623.72
2023-02-16T15:02:21.280Z,100621.03
2023-02-16T15:07:26.120Z,100618.75
2023-02-16T15:12:32.651Z,100624.16
2023-02-16T15:17:45.809Z,100618.97
2023-02-16T15:22:56.134Z,100608.84
2023-02-16T15:28:16.908Z,100609.72
2023-02-16T15:33:24.623Z,100603.44
2023-02-16T15:38:28.122Z,100607.19
2023-02-16T15:43:35.845Z,100605.78
2023-02-16T15:48:38.252Z,100603.53
2023-02-16T15:53:52.260Z,100606.66
2023-02-16T15:58:55.890Z,100609.81
2023-02-16T16:03:57.571Z,100606.59
2023-02-16T16:08:59.810Z,100606.75
2023-02-16T16:14:06.144Z,100607.69
2023-02-16T16:19:18.442Z,100606.72
2023-02-16T16:24:38.757Z,100607.66
2023-02-16T16:29:44.100Z,100613.88
2023-02-16T16:34:46.168Z,100607.84
2023-02-16T16:40:22.088Z,100612.25
2023-02-16T16:45:36.652Z,100612.28
2023-02-16T16:50:39.866Z,100612.28
2023-02-16T16:55:41.575Z,100605.34
2023-02-16T17:00:45.728Z,100601.88
2023-02-16T17:05:47.455Z,100599.25
2023-02-16T17:10:49.166Z,100597.47
2023-02-16T17:16:02.353Z,100601.84
2023-02-16T17:21:05.302Z,100605.25
2023-02-16T17:26:07.523Z,100598.31
2023-02-16T17:31:10.983Z,100603.47
2023-02-16T17:36:15.526Z,100593.00
2023-02-16T17:41:29.391Z,100585.16
2023-02-16T17:46:32.216Z,100580.06
2023-02-16T17:51:36.295Z,100586.97
2023-02-16T17:56:41.827Z,100580.84
2023-02-16T18:01:45.029Z,100582.56
2023-02-16T18:06:48.573Z,100581.59
2023-02-16T18:11:51.237Z,100598.06
2023-02-16T18:16:53.578Z,100597.22
2023-02-16T18:21:55.845Z,100585.91
2023-02-16T18:26:57.570Z,100593.66
2023-02-16T18:32:03.212Z,100598.03
2023-02-16T18:37:04.893Z,100599.75
2023-02-16T18:42:06.972Z,100603.16
2023-02-16T18:47:11.956Z,100603.16
2023-02-16T18:52:13.547Z,100601.41
2023-02-16T18:57:15.356Z,100604.09
2023-02-16T19:02:17.005Z,100608.41
2023-02-16T19:07:19.380Z,100621.28
2023-02-16T19:12:21.100Z,100631.63
2023-02-16T19:17:22.688Z,100629.94
2023-02-16T19:22:25.120Z,100623.94
2023-02-16T19:27:26.914Z,100610.09
2023-02-16T19:32:29.632Z,100610.03
2023-02-16T19:37:32.061Z,100598.75
2023-02-16T19:42:33.758Z,100600.50
2023-02-16T19:47:35.938Z,100588.44
2023-02-16T19:52:38.432Z,100594.59
2023-02-16T19:57:42.406Z,100592.00
2023-02-16T20:02:44.368Z,100591.94
2023-02-16T20:07:46.964Z,100580.09
2023-02-16T20:12:49.142Z,100578.28
2023-02-16T20:18:01.069Z,100573.06
2023-02-16T20:23:02.858Z,100568.50
2023-02-16T20:28:04.745Z,100566.34
2023-02-16T20:33:06.397Z,100567.03
2023-02-16T20:38:08.159Z,100576.56
2023-02-16T20:43:10.362Z,100586.16
2023-02-16T20:48:12.498Z,100576.53
2023-02-16T20:53:14.396Z,100574.63
2023-02-16T20:58:17.228Z,100576.19
2023-02-16T21:03:19.052Z,100557.78
2023-02-16T21:08:21.051Z,100557.63
2023-02-16T21:13:22.989Z,100568.31
2023-02-16T21:18:27.169Z,100555.03
2023-02-16T21:23:30.083Z,100547.81
2023-02-16T21:28:32.116Z,100543.41
2023-02-16T21:33:34.091Z,100541.75
2023-02-16T21:38:36.752Z,100533.09
2023-02-16T21:43:38.750Z,100533.00
2023-02-16T21:48:52.941Z,100526.00
2023-02-16T21:53:55.392Z,100526.13
2023-02-16T21:58:57.702Z,100524.09
2023-02-16T22:04:00.559Z,100517.97
2023-02-16T22:09:06.726Z,100518.94
2023-02-16T22:14:08.445Z,100505.53
2023-02-16T22:19:15.301Z,100508.19
2023-02-16T22:24:18.406Z,100501.91
2023-02-16T22:29:20.098Z,100500.78
2023-02-16T22:34:22.551Z,100497.22
2023-02-16T22:39:24.279Z,100493.69
2023-02-16T22:44:25.989Z,100493.78
2023-02-16T22:49:27.673Z,100488.00
2023-02-16T22:54:29.271Z,100491.94
2023-02-16T22:59:30.954Z,100472.63
2023-02-16T23:04:32.686Z,100464.22
2023-02-16T23:09:34.605Z,100458.06
2023-02-16T23:14:37.671Z,100443.56
2023-02-16T23:19:40.206Z,100453.94
2023-02-16T23:24:41.882Z,100455.00
2023-02-16T23:29:43.545Z,100446.84
2023-02-16T23:34:45.260Z,100438.91
2023-02-16T23:39:47.011Z,100441.78
2023-02-16T23:44:48.754Z,100427.53
2023-02-16T23:49:50.556Z,100416.84
2023-02-16T23:54:52.203Z,100405.53
2023-02-16T23:59:53.824Z,100398.88
